createdAt,value
2022-10-22T00:01:11.601Z,14.50
2022-10-22T00:03:41.319Z,15.10
2022-10-22T00:06:09.437Z,13.50
2022-10-22T00:08:37.577Z,14.70
2022-10-22T00:11:23.806Z,14.00
2022-10-22T00:13:51.775Z,14.40
2022-10-22T00:16:20.085Z,15.30
2022-10-22T00:18:48.208Z,14.40
2022-10-22T00:21:16.163Z,14.20
2022-10-22T00:23:44.235Z,14.40
2022-10-22T00:26:12.991Z,13.50
2022-10-22T00:28:41.686Z,14.10
2022-10-22T00:31:10.055Z,15.40
2022-10-22T00:33:37.999Z,14.10
2022-10-22T00:36:06.372Z,14.70
2022-10-22T00:38:34.788Z,14.70
2022-10-22T00:41:02.804Z,14.30
2022-10-22T00:43:30.823Z,14.90
2022-10-22T00:45:58.877Z,13.70
2022-10-22T00:48:29.897Z,14.30
2022-10-22T00:51:06.453Z,14.60
2022-10-22T00:53:41.695Z,13.70
2022-10-22T00:56:10.782Z,15.20
2022-10-22T00:58:52.681Z,13.30
2022-10-22T01:01:25.315Z,12.60
2022-10-22T01:03:53.961Z,14.20
2022-10-22T01:06:26.272Z,14.90
2022-10-22T01:09:09.889Z,13.80
2022-10-22T01:11:52.865Z,14.00
2022-10-22T01:14:45.427Z,13.80
2022-10-22T01:17:28.347Z,12.70
2022-10-22T01:20:08.464Z,13.80
2022-10-22T01:22:43.238Z,11.90
2022-10-22T01:25:19.925Z,13.70
2022-10-22T01:28:23.997Z,12.20
2022-10-22T01:30:56.628Z,13.30
2022-10-22T01:33:26.121Z,13.30
2022-10-22T01:35:55.291Z,12.20
2022-10-22T01:38:25.274Z,13.20
2022-10-22T01:40:54.800Z,12.70
2022-10-22T01:43:22.973Z,13.20
2022-10-22T01:45:54.100Z,12.20
2022-10-22T01:48:40.352Z,13.60
2022-10-22T01:51:29.671Z,12.50
2022-10-22T01:54:08.798Z,14.00
2022-10-22T01:57:03.939Z,13.00
2022-10-22T01:59:45.373Z,13.40
2022-10-22T02:02:23.118Z,14.10
2022-10-22T02:05:03.339Z,14.10
2022-10-22T02:07:39.643Z,13.60
2022-10-22T02:10:09.573Z,13.80
2022-10-22T02:12:39.609Z,13.40
2022-10-22T02:15:09.208Z,14.60
2022-10-22T02:17:39.237Z,15.20
2022-10-22T02:20:17.006Z,14.10
2022-10-22T02:22:46.611Z,15.70
2022-10-22T02:25:15.237Z,11.40
2022-10-22T02:28:26.964Z,15.60
2022-10-22T02:31:00.431Z,14.40
2022-10-22T02:33:32.700Z,13.90
2022-10-22T02:36:02.680Z,13.30
2022-10-22T02:38:33.143Z,14.60
2022-10-22T02:41:01.849Z,16.60
2022-10-22T02:43:30.057Z,14.40
2022-10-22T02:45:58.186Z,14.30
2022-10-22T02:48:26.338Z,15.00
2022-10-22T02:50:54.974Z,15.00
2022-10-22T02:53:23.054Z,15.80
2022-10-22T02:55:51.165Z,16.80
2022-10-22T02:58:19.195Z,15.20
2022-10-22T03:00:48.494Z,14.40
2022-10-22T03:03:16.437Z,15.70
2022-10-22T03:05:44.361Z,15.90
2022-10-22T03:08:13.252Z,16.90
2022-10-22T03:10:41.326Z,16.00
2022-10-22T03:13:09.323Z,15.20
2022-10-22T03:15:37.348Z,15.20
2022-10-22T03:18:05.668Z,10.80
2022-10-22T03:20:33.735Z,17.40
2022-10-22T03:23:02.725Z,17.10
2022-10-22T03:25:34.526Z,16.80
2022-10-22T03:28:07.946Z,16.80
2022-10-22T03:30:36.870Z,15.50
2022-10-22T03:33:04.860Z,16.80
2022-10-22T03:35:37.064Z,17.90
2022-10-22T03:38:05.135Z,16.20
2022-10-22T03:40:33.084Z,14.80
2022-10-22T03:43:01.162Z,16.60
2022-10-22T03:45:29.138Z,16.20
2022-10-22T03:47:57.152Z,16.90
2022-10-22T03:50:25.265Z,18.00
2022-10-22T03:52:53.879Z,16.20
2022-10-22T03:55:21.801Z,17.00
2022-10-22T03:57:50.214Z,15.90
2022-10-22T04:00:18.440Z,18.80
2022-10-22T04:02:46.501Z,17.20
2022-10-22T04:07:47.381Z,17.50
2022-10-22T04:10:15.728Z,18.80
2022-10-22T04:12:43.674Z,18.10
2022-10-22T04:15:11.764Z,17.60
2022-10-22T04:17:40.381Z,18.70
2022-10-22T04:20:10.480Z,17.20
2022-10-22T04:22:38.488Z,16.50
2022-10-22T04:25:06.578Z,16.70
2022-10-22T04:27:35.255Z,17.70
2022-10-22T04:30:05.506Z,18.20
2022-10-22T04:32:33.504Z,18.00
2022-10-22T04:35:01.460Z,18.20
2022-10-22T04:37:29.473Z,18.60
2022-10-22T04:39:58.299Z,18.00
2022-10-22T04:42:26.486Z,17.70
2022-10-22T04:44:54.473Z,19.80
2022-10-22T04:47:22.479Z,18.30
2022-10-22T04:49:50.405Z,19.80
2022-10-22T04:52:18.455Z,19.90
2022-10-22T04:54:47.061Z,17.50
2022-10-22T04:57:15.111Z,19.60
2022-10-22T04:59:43.081Z,19.00
2022-10-22T05:02:11.027Z,21.00
2022-10-22T05:04:39.048Z,17.20
2022-10-22T05:07:07.160Z,20.80
2022-10-22T05:09:35.284Z,18.40
2022-10-22T05:12:03.291Z,21.30
2022-10-22T05:14:31.422Z,21.50
2022-10-22T05:16:59.591Z,19.40
2022-10-22T05:19:30.118Z,20.40
2022-10-22T05:22:00.966Z,19.40
2022-10-22T05:24:30.486Z,20.40
2022-10-22T05:27:00.227Z,20.20
2022-10-22T05:29:28.703Z,18.80
2022-10-22T05:31:57.176Z,20.90
2022-10-22T05:34:25.400Z,21.00
2022-10-22T05:36:53.375Z,21.10
2022-10-22T05:39:21.444Z,19.70
2022-10-22T05:41:49.458Z,20.30
2022-10-22T05:44:17.472Z,19.80
2022-10-22T05:46:45.796Z,19.10
2022-10-22T05:49:15.699Z,20.40
2022-10-22T05:51:43.924Z,20.00
2022-10-22T05:54:20.075Z,19.20
2022-10-22T05:59:16.352Z,19.80
2022-10-22T06:01:44.686Z,18.10
2022-10-22T06:04:13.885Z,19.50
2022-10-22T06:06:51.260Z,20.60
2022-10-22T06:09:31.726Z,19.50
2022-10-22T06:11:59.991Z,18.90
2022-10-22T06:14:29.554Z,19.50
2022-10-22T06:17:00.321Z,20.10
2022-10-22T06:19:30.110Z,20.50
2022-10-22T06:21:58.274Z,21.20
2022-10-22T06:24:26.353Z,18.40
2022-10-22T06:26:54.358Z,20.30
2022-10-22T06:29:22.528Z,19.00
2022-10-22T06:31:51.795Z,19.20
2022-10-22T06:34:19.942Z,19.60
2022-10-22T06:36:48.029Z,19.10
2022-10-22T06:39:18.087Z,18.10
2022-10-22T06:41:47.113Z,16.10
2022-10-22T06:44:19.500Z,18.50
2022-10-22T06:46:52.322Z,17.70
2022-10-22T06:49:21.232Z,18.60
2022-10-22T06:51:53.682Z,18.40
2022-10-22T06:54:23.161Z,19.20
2022-10-22T06:56:51.176Z,18.60
2022-10-22T06:59:19.224Z,20.00
2022-10-22T07:01:47.274Z,20.30
2022-10-22T07:04:15.723Z,18.60
2022-10-22T07:06:43.718Z,17.80
2022-10-22T07:09:11.947Z,19.10
2022-10-22T07:11:45.633Z,18.40
2022-10-22T07:14:14.715Z,18.80
2022-10-22T07:16:43.322Z,18.20
2022-10-22T07:19:11.742Z,18.60
2022-10-22T07:21:40.122Z,16.20
2022-10-22T07:24:08.516Z,18.90
2022-10-22T07:26:37.051Z,17.60
2022-10-22T07:29:06.442Z,17.90
2022-10-22T07:31:34.533Z,18.60
2022-10-22T07:34:02.717Z,17.10
2022-10-22T07:36:30.694Z,18.40
2022-10-22T07:38:59.839Z,17.20
2022-10-22T07:41:29.849Z,17.70
2022-10-22T07:43:58.332Z,17.10
2022-10-22T07:46:27.542Z,16.50
2022-10-22T07:48:55.620Z,15.50
2022-10-22T07:51:23.989Z,15.60
2022-10-22T07:53:52.057Z,16.60
2022-10-22T07:56:20.960Z,14.60
2022-10-22T07:58:49.087Z,14.70
2022-10-22T08:01:17.249Z,14.60
2022-10-22T08:03:45.318Z,14.00
2022-10-22T08:06:15.065Z,14.20
2022-10-22T08:08:47.842Z,15.10
2022-10-22T08:11:16.136Z,14.70
2022-10-22T08:13:45.595Z,16.10
2022-10-22T08:16:15.041Z,14.70
2022-10-22T08:18:43.186Z,13.50
2022-10-22T08:21:12.627Z,14.20
2022-10-22T08:23:40.870Z,12.50
2022-10-22T08:26:09.256Z,13.00
2022-10-22T08:28:37.419Z,13.20
2022-10-22T08:31:07.961Z,12.90
2022-10-22T08:33:37.029Z,14.00
2022-10-22T08:36:06.031Z,14.10
2022-10-22T08:38:35.419Z,13.00
2022-10-22T08:41:18.596Z,12.70
2022-10-22T08:44:14.787Z,13.20
2022-10-22T08:46:55.202Z,12.80
2022-10-22T08:49:28.681Z,12.70
2022-10-22T08:52:00.345Z,13.00
2022-10-22T08:54:54.672Z,12.90
2022-10-22T08:57:51.388Z,12.80
2022-10-22T09:00:36.112Z,14.20
2022-10-22T09:03:41.631Z,12.10
2022-10-22T09:06:18.844Z,12.90
2022-10-22T09:08:47.944Z,11.80
2022-10-22T09:13:49.518Z,13.10
2022-10-22T09:16:22.211Z,12.00
2022-10-22T09:19:18.204Z,12.60
2022-10-22T09:22:04.655Z,13.20
2022-10-22T09:24:39.662Z,15.40
2022-10-22T09:27:13.981Z,13.00
2022-10-22T09:29:43.520Z,13.90
2022-10-22T09:32:11.701Z,11.70
2022-10-22T09:34:39.950Z,13.30
2022-10-22T09:37:10.195Z,15.60
2022-10-22T09:39:41.664Z,15.40
2022-10-22T09:42:12.167Z,14.70
2022-10-22T09:44:43.689Z,14.70
2022-10-22T09:48:00.464Z,15.90
2022-10-22T09:50:41.315Z,14.80
2022-10-22T09:53:13.860Z,14.30
2022-10-22T09:55:43.600Z,14.20
2022-10-22T09:58:14.120Z,14.10
2022-10-22T10:00:45.705Z,14.70
2022-10-22T10:03:23.722Z,14.00
2022-10-22T10:05:55.089Z,13.20
2022-10-22T10:08:24.164Z,14.00
2022-10-22T10:11:08.508Z,13.80
2022-10-22T10:13:51.908Z,14.90
2022-10-22T10:16:31.039Z,15.60
2022-10-22T10:19:11.609Z,14.00
2022-10-22T10:22:05.486Z,14.30
2022-10-22T10:24:48.984Z,14.50
2022-10-22T10:27:25.161Z,13.90
2022-10-22T10:30:10.359Z,14.30
2022-10-22T10:32:41.458Z,14.90
2022-10-22T10:35:28.304Z,15.60
2022-10-22T10:37:59.815Z,16.50
2022-10-22T10:40:43.673Z,16.80
2022-10-22T10:43:38.859Z,16.90
2022-10-22T10:46:19.195Z,16.70
2022-10-22T10:48:57.285Z,17.50
2022-10-22T10:52:02.612Z,18.30
2022-10-22T10:54:55.569Z,18.10
2022-10-22T10:57:59.946Z,18.60
2022-10-22T11:00:36.133Z,16.80
2022-10-22T11:03:38.204Z,21.30
2022-10-22T11:06:21.595Z,23.40
2022-10-22T11:11:40.224Z,21.70
2022-10-22T11:14:14.701Z,21.70
2022-10-22T11:17:11.943Z,21.70
2022-10-22T11:19:51.604Z,20.90
2022-10-22T11:22:29.648Z,22.60
2022-10-22T11:25:18.798Z,23.20
2022-10-22T11:28:06.548Z,22.70
2022-10-22T11:30:41.828Z,22.00
2022-10-22T11:33:18.498Z,26.80
2022-10-22T11:35:48.572Z,25.20
2022-10-22T11:38:22.565Z,26.10
2022-10-22T11:40:55.136Z,27.80
2022-10-22T11:43:52.006Z,28.50
2022-10-22T11:46:19.904Z,27.00
2022-10-22T11:49:06.417Z,26.80
2022-10-22T11:51:39.926Z,27.00
2022-10-22T11:54:26.916Z,28.60
2022-10-22T11:57:17.337Z,29.50
2022-10-22T11:59:54.102Z,23.10
2022-10-22T12:02:28.271Z,27.40
2022-10-22T12:05:19.334Z,26.30
2022-10-22T12:07:58.601Z,27.50
2022-10-22T12:10:29.807Z,29.50
2022-10-22T12:13:24.199Z,28.70
2022-10-22T12:15:57.487Z,27.10
2022-10-22T12:18:41.472Z,28.20
2022-10-22T12:21:14.069Z,28.40
2022-10-22T12:23:44.702Z,27.30
2022-10-22T12:26:27.343Z,28.40
2022-10-22T12:29:03.369Z,26.30
2022-10-22T12:34:04.568Z,29.90
2022-10-22T12:36:37.065Z,27.70
2022-10-22T12:39:13.240Z,27.70
2022-10-22T12:41:41.990Z,27.80
2022-10-22T12:44:16.270Z,28.80
2022-10-22T12:46:47.438Z,27.80
2022-10-22T12:49:22.578Z,28.30
2022-10-22T12:51:50.645Z,29.50
2022-10-22T12:54:27.154Z,27.90
2022-10-22T12:56:56.467Z,26.50
2022-10-22T12:59:39.174Z,27.20
2022-10-22T13:02:27.409Z,27.50
2022-10-22T13:05:14.449Z,26.50
2022-10-22T13:07:48.999Z,26.50
2022-10-22T13:10:25.603Z,25.50
2022-10-22T13:12:59.219Z,26.40
2022-10-22T13:15:35.830Z,26.40
2022-10-22T13:18:23.137Z,25.80
2022-10-22T13:21:01.966Z,23.60
2022-10-22T13:23:33.912Z,24.10
2022-10-22T13:26:17.041Z,25.10
2022-10-22T13:28:54.742Z,24.80
2022-10-22T13:31:29.118Z,23.20
2022-10-22T13:34:03.683Z,24.50
2022-10-22T13:36:34.721Z,22.00
2022-10-22T13:39:04.035Z,23.40
2022-10-22T13:41:34.787Z,23.30
2022-10-22T13:44:03.015Z,23.30
2022-10-22T13:46:31.625Z,24.20
2022-10-22T13:49:00.668Z,23.70
2022-10-22T13:51:35.879Z,21.90
2022-10-22T13:54:09.553Z,24.10
2022-10-22T13:56:37.571Z,22.80
2022-10-22T13:59:05.534Z,24.10
2022-10-22T14:01:33.522Z,23.00
2022-10-22T14:04:04.628Z,25.60
2022-10-22T14:09:14.684Z,26.00
2022-10-22T14:11:43.558Z,25.20
2022-10-22T14:14:14.385Z,24.20
2022-10-22T14:16:42.862Z,25.60
2022-10-22T14:19:16.597Z,24.00
2022-10-22T14:21:44.797Z,25.10
2022-10-22T14:24:13.505Z,25.10
2022-10-22T14:26:42.041Z,24.20
2022-10-22T14:29:11.315Z,25.80
2022-10-22T14:31:42.754Z,26.20
2022-10-22T14:34:13.111Z,28.00
2022-10-22T14:36:43.813Z,27.50
2022-10-22T14:39:13.706Z,27.20
2022-10-22T14:41:42.722Z,27.10
2022-10-22T14:44:14.394Z,29.00
2022-10-22T14:46:44.901Z,30.30
2022-10-22T14:49:13.804Z,29.40
2022-10-22T14:51:42.193Z,31.20
2022-10-22T14:54:10.396Z,23.60
2022-10-22T14:56:38.556Z,29.60
2022-10-22T14:59:06.868Z,30.30
2022-10-22T15:01:35.001Z,28.60
2022-10-22T15:04:03.268Z,28.70
2022-10-22T15:06:31.504Z,29.70
2022-10-22T15:08:59.644Z,29.50
2022-10-22T15:11:28.514Z,28.20
2022-10-22T15:13:56.438Z,30.30
2022-10-22T15:16:24.610Z,31.30
2022-10-22T15:18:53.562Z,32.50
2022-10-22T15:21:22.479Z,31.80
2022-10-22T15:23:50.553Z,25.40
2022-10-22T15:26:19.081Z,35.10
2022-10-22T15:28:47.385Z,33.40
2022-10-22T15:31:15.843Z,33.90
2022-10-22T15:33:44.056Z,31.40
2022-10-22T15:36:16.567Z,31.00
2022-10-22T15:38:44.934Z,32.90
2022-10-22T15:41:13.707Z,30.20
2022-10-22T15:43:42.862Z,30.90
2022-10-22T15:46:17.271Z,30.00
2022-10-22T15:48:46.185Z,31.90
2022-10-22T15:51:18.844Z,34.50
2022-10-22T15:53:52.629Z,33.30
2022-10-22T15:56:21.521Z,35.50
2022-10-22T15:58:53.717Z,37.40
2022-10-22T16:01:21.950Z,36.10
2022-10-22T16:04:00.374Z,36.40
2022-10-22T16:06:33.368Z,38.70
2022-10-22T16:09:03.670Z,41.60
2022-10-22T16:11:32.364Z,42.50
2022-10-22T16:14:01.537Z,41.90
2022-10-22T16:16:32.883Z,41.80
2022-10-22T16:19:01.509Z,41.40
2022-10-22T16:21:30.319Z,40.50
2022-10-22T16:24:05.921Z,43.20
2022-10-22T16:26:35.644Z,43.90
2022-10-22T16:29:05.396Z,41.40
2022-10-22T16:31:33.447Z,43.40
2022-10-22T16:34:01.485Z,39.80
2022-10-22T16:36:29.519Z,40.80
2022-10-22T16:38:57.538Z,38.70
2022-10-22T16:41:26.073Z,37.90
2022-10-22T16:43:55.480Z,40.60
2022-10-22T16:46:23.566Z,35.20
2022-10-22T16:48:52.987Z,41.60
2022-10-22T16:51:24.055Z,39.00
2022-10-22T16:53:52.804Z,42.60
2022-10-22T16:56:21.491Z,43.40
2022-10-22T16:58:53.811Z,39.50
2022-10-22T17:01:26.032Z,48.50
2022-10-22T17:03:57.043Z,44.20
2022-10-22T17:06:25.566Z,45.10
2022-10-22T17:08:54.262Z,48.10
2022-10-22T17:11:24.732Z,48.90
2022-10-22T17:13:54.488Z,48.40
2022-10-22T17:16:24.398Z,48.10
2022-10-22T17:18:54.869Z,50.30
2022-10-22T17:21:24.077Z,48.70
2022-10-22T17:23:58.769Z,51.30
2022-10-22T17:26:27.075Z,49.50
2022-10-22T17:28:55.454Z,47.50
2022-10-22T17:31:23.407Z,50.80
2022-10-22T17:33:53.861Z,49.90
2022-10-22T17:36:23.474Z,48.80
2022-10-22T17:38:57.197Z,48.50
2022-10-22T17:41:30.957Z,50.40
2022-10-22T17:44:01.770Z,51.90
2022-10-22T17:46:31.437Z,48.90
2022-10-22T17:49:05.446Z,49.50
2022-10-22T17:51:33.739Z,50.40
2022-10-22T17:54:03.567Z,51.40
2022-10-22T17:56:34.301Z,52.80
2022-10-22T17:59:02.501Z,49.30
2022-10-22T18:01:33.280Z,53.00
2022-10-22T18:04:04.340Z,53.80
2022-10-22T18:06:32.646Z,52.80
2022-10-22T18:09:04.640Z,53.70
2022-10-22T18:11:34.445Z,55.70
2022-10-22T18:14:02.806Z,53.40
2022-10-22T18:16:30.745Z,50.80
2022-10-22T18:18:58.975Z,49.60
2022-10-22T18:21:31.472Z,48.20
2022-10-22T18:23:59.754Z,46.70
2022-10-22T18:26:27.789Z,47.20
2022-10-22T18:28:57.237Z,49.50
2022-10-22T18:31:27.144Z,46.90
2022-10-22T18:33:57.250Z,46.80
2022-10-22T18:36:26.614Z,45.70
2022-10-22T18:38:56.253Z,47.80
2022-10-22T18:41:24.884Z,45.50
2022-10-22T18:43:56.472Z,47.90
2022-10-22T18:46:25.779Z,47.40
2022-10-22T18:48:58.316Z,45.50
2022-10-22T18:51:30.655Z,42.50
2022-10-22T18:54:11.339Z,42.30
2022-10-22T18:56:47.552Z,41.90
2022-10-22T18:59:19.302Z,41.40
2022-10-22T19:01:47.655Z,38.00
2022-10-22T19:04:15.717Z,41.30
2022-10-22T19:06:45.754Z,41.10
2022-10-22T19:09:15.826Z,42.90
2022-10-22T19:11:45.196Z,42.10
2022-10-22T19:14:17.312Z,41.60
2022-10-22T19:16:45.710Z,45.50
2022-10-22T19:19:17.898Z,38.40
2022-10-22T19:21:46.681Z,45.40
2022-10-22T19:24:16.840Z,47.00
2022-10-22T19:26:46.296Z,47.10
2022-10-22T19:29:16.776Z,46.30
2022-10-22T19:31:45.114Z,46.40
2022-10-22T19:34:14.177Z,47.10
2022-10-22T19:36:42.281Z,46.10
2022-10-22T19:39:10.620Z,47.00
2022-10-22T19:41:39.075Z,44.70
2022-10-22T19:44:07.359Z,44.70
2022-10-22T19:46:35.416Z,44.50
2022-10-22T19:49:04.957Z,45.00
2022-10-22T19:51:34.546Z,46.20
2022-10-22T19:54:06.298Z,46.80
2022-10-22T19:56:36.091Z,45.30
2022-10-22T19:59:05.878Z,46.50
2022-10-22T20:01:34.105Z,47.30
2022-10-22T20:04:09.625Z,43.40
2022-10-22T20:06:37.668Z,44.70
2022-10-22T20:09:06.650Z,45.40
2022-10-22T20:11:34.696Z,46.30
2022-10-22T20:14:02.932Z,48.40
2022-10-22T20:16:31.793Z,48.80
2022-10-22T20:19:02.517Z,44.90
2022-10-22T20:21:30.946Z,47.40
2022-10-22T20:23:59.431Z,45.10
2022-10-22T20:26:28.499Z,44.90
2022-10-22T20:28:58.486Z,48.50
2022-10-22T20:31:28.774Z,49.70
2022-10-22T20:33:59.007Z,47.40
2022-10-22T20:36:28.976Z,49.00
2022-10-22T20:39:02.915Z,51.60
2022-10-22T20:41:37.833Z,55.10
2022-10-22T20:44:06.954Z,51.40
2022-10-22T20:46:37.352Z,50.90
2022-10-22T20:49:09.135Z,50.60
2022-10-22T20:51:38.200Z,50.90
2022-10-22T20:54:08.096Z,52.10
2022-10-22T20:56:39.785Z,52.70
2022-10-22T20:59:11.116Z,56.40
2022-10-22T21:01:48.104Z,51.80
2022-10-22T21:04:18.016Z,53.60
2022-10-22T21:06:46.477Z,54.80
2022-10-22T21:09:15.198Z,56.50
2022-10-22T21:11:43.842Z,56.10
2022-10-22T21:14:14.042Z,56.60
2022-10-22T21:16:44.115Z,57.50
2022-10-22T21:19:12.347Z,56.70
2022-10-22T21:21:40.843Z,56.80
2022-10-22T21:24:09.448Z,56.10
2022-10-22T21:26:38.484Z,53.90
2022-10-22T21:29:07.395Z,54.10
2022-10-22T21:31:36.078Z,55.30
2022-10-22T21:34:04.268Z,56.10
2022-10-22T21:36:34.914Z,53.60
2022-10-22T21:39:03.201Z,51.10
2022-10-22T21:41:31.349Z,54.70
2022-10-22T21:43:59.769Z,54.10
2022-10-22T21:46:28.972Z,54.50
2022-10-22T21:49:01.241Z,54.90
2022-10-22T21:51:32.387Z,56.30
2022-10-22T21:54:00.781Z,55.50
2022-10-22T21:56:32.827Z,54.40
2022-10-22T21:59:02.269Z,54.50
2022-10-22T22:01:30.715Z,51.80
2022-10-22T22:03:59.223Z,53.80
2022-10-22T22:06:30.717Z,56.60
2022-10-22T22:09:00.257Z,58.40
2022-10-22T22:11:28.670Z,55.40
2022-10-22T22:13:58.033Z,60.20
2022-10-22T22:16:29.632Z,65.20
2022-10-22T22:21:39.506Z,63.60
2022-10-22T22:24:11.027Z,58.90
2022-10-22T22:26:40.860Z,57.30
2022-10-22T22:29:10.589Z,56.20
2022-10-22T22:31:40.146Z,52.50
2022-10-22T22:34:12.855Z,56.20
2022-10-22T22:36:43.856Z,59.30
2022-10-22T22:39:14.481Z,55.40
2022-10-22T22:41:43.382Z,63.50
2022-10-22T22:44:12.289Z,59.60
2022-10-22T22:46:40.565Z,60.20
2022-10-22T22:49:09.100Z,65.20
2022-10-22T22:51:37.053Z,60.90
2022-10-22T22:54:05.086Z,62.30
2022-10-22T22:56:34.746Z,61.00
2022-10-22T22:59:04.945Z,60.00
2022-10-22T23:01:35.815Z,62.20
2022-10-22T23:04:12.174Z,62.50
2022-10-22T23:06:40.582Z,59.30
2022-10-22T23:09:11.173Z,64.40
2022-10-22T23:11:40.436Z,62.30
2022-10-22T23:14:11.748Z,61.40
2022-10-22T23:16:42.724Z,65.70
2022-10-22T23:19:10.731Z,58.10
2022-10-22T23:21:41.092Z,61.10
2022-10-22T23:24:14.015Z,59.80
2022-10-22T23:26:47.998Z,61.70
2022-10-22T23:29:19.069Z,56.70
2022-10-22T23:31:48.409Z,60.80
2022-10-22T23:34:25.328Z,60.30
2022-10-22T23:36:55.796Z,59.80
2022-10-22T23:39:26.485Z,53.00
2022-10-22T23:41:55.497Z,60.20
2022-10-22T23:44:24.305Z,59.70
2022-10-22T23:46:52.345Z,60.70
2022-10-22T23:49:20.218Z,62.20
2022-10-22T23:51:48.182Z,66.40
2022-10-22T23:54:18.649Z,62.10
2022-10-22T23:56:47.786Z,69.10
2022-10-22T23:59:16.248Z,67.40
